sensor_id;sensor_type;location;lat;lon;timestamp;temperature;humidity
32534;DHT22;18973;48.580;8.912;2023-12-07T00:01:05;2.50;99.90
32534;DHT22;18973;48.580;8.912;2023-12-07T00:03:31;2.70;99.90
32534;DHT22;18973;48.580;8.912;2023-12-07T00:05:56;2.80;99.90
32534;DHT22;18973;48.580;8.912;2023-12-07T00:08:22;2.70;99.90
32534;DHT22;18973;48.580;8.912;2023-12-07T00:10:47;2.60;99.90
32534;DHT22;18973;48.580;8.912;2023-12-07T00:13:13;2.70;99.90
32534;DHT22;18973;48.580;8.912;2023-12-07T00:15:48;2.70;99.90
32534;DHT22;18973;48.580;8.912;2023-12-07T00:18:13;2.70;99.90
32534;DHT22;18973;48.580;8.912;2023-12-07T00:20:39;2.80;99.90
32534;DHT22;18973;48.580;8.912;2023-12-07T00:23:05;2.80;99.90
32534;DHT22;18973;48.580;8.912;2023-12-07T00:25:31;2.60;99.90
32534;DHT22;18973;48.580;8.912;2023-12-07T00:27:56;2.20;99.90
32534;DHT22;18973;48.580;8.912;2023-12-07T00:30:22;2.40;99.90
32534;DHT22;18973;48.580;8.912;2023-12-07T00:32:48;2.50;99.90
32534;DHT22;18973;48.580;8.912;2023-12-07T00:35:13;2.40;99.90
32534;DHT22;18973;48.580;8.912;2023-12-07T00:37:41;2.20;99.90
32534;DHT22;18973;48.580;8.912;2023-12-07T00:40:06;2.20;99.90
32534;DHT22;18973;48.580;8.912;2023-12-07T00:42:33;2.40;99.90
32534;DHT22;18973;48.580;8.912;2023-12-07T00:45:00;2.40;99.90
32534;DHT22;18973;48.580;8.912;2023-12-07T00:47:25;2.50;99.90
32534;DHT22;18973;48.580;8.912;2023-12-07T00:49:51;2.50;99.90
32534;DHT22;18973;48.580;8.912;2023-12-07T00:52:17;2.40;99.90
32534;DHT22;18973;48.580;8.912;2023-12-07T00:54:43;2.20;99.90
32534;DHT22;18973;48.580;8.912;2023-12-07T00:57:09;2.10;99.90
32534;DHT22;18973;48.580;8.912;2023-12-07T00:59:35;2.20;99.90
32534;DHT22;18973;48.580;8.912;2023-12-07T01:02:08;2.30;99.90
32534;DHT22;18973;48.580;8.912;2023-12-07T01:04:33;2.40;99.90
32534;DHT22;18973;48.580;8.912;2023-12-07T01:06:59;2.20;99.90
32534;DHT22;18973;48.580;8.912;2023-12-07T01:09:25;2.30;99.90
32534;DHT22;18973;48.580;8.912;2023-12-07T01:11:51;2.40;99.90
32534;DHT22;18973;48.580;8.912;2023-12-07T01:14:18;2.60;99.90
32534;DHT22;18973;48.580;8.912;2023-12-07T01:16:44;2.50;99.90
32534;DHT22;18973;48.580;8.912;2023-12-07T01:19:10;2.40;99.90
32534;DHT22;18973;48.580;8.912;2023-12-07T01:21:38;2.10;99.90
32534;DHT22;18973;48.580;8.912;2023-12-07T01:24:04;2.20;99.90
32534;DHT22;18973;48.580;8.912;2023-12-07T01:26:29;2.30;99.90
32534;DHT22;18973;48.580;8.912;2023-12-07T01:28:55;2.30;99.90
32534;DHT22;18973;48.580;8.912;2023-12-07T01:31:20;2.40;99.90
32534;DHT22;18973;48.580;8.912;2023-12-07T01:33:46;2.50;99.90
32534;DHT22;18973;48.580;8.912;2023-12-07T01:36:12;2.50;99.90
32534;DHT22;18973;48.580;8.912;2023-12-07T01:38:38;2.60;99.90
32534;DHT22;18973;48.580;8.912;2023-12-07T01:41:03;2.60;99.90
32534;DHT22;18973;48.580;8.912;2023-12-07T01:43:29;2.70;99.90
32534;DHT22;18973;48.580;8.912;2023-12-07T01:45:57;2.50;99.90
32534;DHT22;18973;48.580;8.912;2023-12-07T01:48:24;2.50;99.90
32534;DHT22;18973;48.580;8.912;2023-12-07T01:50:53;2.50;99.90
32534;DHT22;18973;48.580;8.912;2023-12-07T01:53:21;2.50;99.90
32534;DHT22;18973;48.580;8.912;2023-12-07T01:55:48;2.50;99.90
32534;DHT22;18973;48.580;8.912;2023-12-07T01:58:17;2.30;99.90
32534;DHT22;18973;48.580;8.912;2023-12-07T02:00:43;2.30;99.90
32534;DHT22;18973;48.580;8.912;2023-12-07T02:03:10;2.10;99.90
32534;DHT22;18973;48.580;8.912;2023-12-07T02:05:37;1.90;99.90
32534;DHT22;18973;48.580;8.912;2023-12-07T02:08:07;1.70;99.90
32534;DHT22;18973;48.580;8.912;2023-12-07T02:10:33;1.60;99.90
32534;DHT22;18973;48.580;8.912;2023-12-07T02:12:59;1.70;99.90
32534;DHT22;18973;48.580;8.912;2023-12-07T02:15:25;1.90;99.90
32534;DHT22;18973;48.580;8.912;2023-12-07T02:18:06;1.80;99.90
32534;DHT22;18973;48.580;8.912;2023-12-07T02:20:37;1.80;99.90
32534;DHT22;18973;48.580;8.912;2023-12-07T02:23:04;2.00;99.90
32534;DHT22;18973;48.580;8.912;2023-12-07T02:25:52;1.90;99.90
32534;DHT22;18973;48.580;8.912;2023-12-07T02:28:18;1.80;99.90
32534;DHT22;18973;48.580;8.912;2023-12-07T02:30:44;1.90;99.90
32534;DHT22;18973;48.580;8.912;2023-12-07T02:33:10;2.10;99.90
32534;DHT22;18973;48.580;8.912;2023-12-07T02:35:37;2.20;99.90
32534;DHT22;18973;48.580;8.912;2023-12-07T02:38:05;2.10;99.90
32534;DHT22;18973;48.580;8.912;2023-12-07T02:40:31;1.90;99.90
32534;DHT22;18973;48.580;8.912;2023-12-07T02:42:58;1.80;99.90
32534;DHT22;18973;48.580;8.912;2023-12-07T02:45:25;2.00;99.90
32534;DHT22;18973;48.580;8.912;2023-12-07T02:47:51;2.00;99.90
32534;DHT22;18973;48.580;8.912;2023-12-07T02:50:17;2.20;99.90
32534;DHT22;18973;48.580;8.912;2023-12-07T02:52:43;2.20;99.90
32534;DHT22;18973;48.580;8.912;2023-12-07T02:55:09;2.10;99.90
32534;DHT22;18973;48.580;8.912;2023-12-07T02:57:35;2.00;99.90
32534;DHT22;18973;48.580;8.912;2023-12-07T03:00:01;2.00;99.90
32534;DHT22;18973;48.580;8.912;2023-12-07T03:02:35;2.10;99.90
32534;DHT22;18973;48.580;8.912;2023-12-07T03:05:01;2.20;99.90
32534;DHT22;18973;48.580;8.912;2023-12-07T03:07:26;2.20;99.90
32534;DHT22;18973;48.580;8.912;2023-12-07T03:09:52;2.00;99.90
32534;DHT22;18973;48.580;8.912;2023-12-07T03:12:18;1.70;99.90
32534;DHT22;18973;48.580;8.912;2023-12-07T03:14:43;1.70;99.90
32534;DHT22;18973;48.580;8.912;2023-12-07T03:17:09;1.80;99.90
32534;DHT22;18973;48.580;8.912;2023-12-07T03:19:39;1.90;99.90
32534;DHT22;18973;48.580;8.912;2023-12-07T03:22:04;1.80;99.90
32534;DHT22;18973;48.580;8.912;2023-12-07T03:24:35;1.60;99.90
32534;DHT22;18973;48.580;8.912;2023-12-07T03:27:01;1.60;99.90
32534;DHT22;18973;48.580;8.912;2023-12-07T03:29:27;1.60;99.90
32534;DHT22;18973;48.580;8.912;2023-12-07T03:31:53;1.40;99.90
32534;DHT22;18973;48.580;8.912;2023-12-07T03:34:18;1.30;99.90
32534;DHT22;18973;48.580;8.912;2023-12-07T03:36:48;1.50;99.90
32534;DHT22;18973;48.580;8.912;2023-12-07T03:39:15;1.30;99.90
32534;DHT22;18973;48.580;8.912;2023-12-07T03:41:41;1.30;99.90
32534;DHT22;18973;48.580;8.912;2023-12-07T03:44:07;1.20;99.90
32534;DHT22;18973;48.580;8.912;2023-12-07T03:46:33;1.50;99.90
32534;DHT22;18973;48.580;8.912;2023-12-07T03:48:58;1.50;99.90
32534;DHT22;18973;48.580;8.912;2023-12-07T03:51:26;1.60;99.90
32534;DHT22;18973;48.580;8.912;2023-12-07T03:53:52;1.70;99.90
32534;DHT22;18973;48.580;8.912;2023-12-07T03:56:31;1.70;99.90
32534;DHT22;18973;48.580;8.912;2023-12-07T03:58:57;1.80;99.90
32534;DHT22;18973;48.580;8.912;2023-12-07T04:01:23;1.80;99.90
32534;DHT22;18973;48.580;8.912;2023-12-07T04:03:50;1.70;99.90
32534;DHT22;18973;48.580;8.912;2023-12-07T04:06:16;1.60;99.90
32534;DHT22;18973;48.580;8.912;2023-12-07T04:08:42;1.50;99.90
32534;DHT22;18973;48.580;8.912;2023-12-07T04:11:08;1.30;99.90
32534;DHT22;18973;48.580;8.912;2023-12-07T04:13:34;1.20;99.90
32534;DHT22;18973;48.580;8.912;2023-12-07T04:15:59;1.10;99.90
32534;DHT22;18973;48.580;8.912;2023-12-07T04:18:25;0.90;99.90
32534;DHT22;18973;48.580;8.912;2023-12-07T04:20:51;0.90;99.90
32534;DHT22;18973;48.580;8.912;2023-12-07T04:23:16;0.90;99.90
32534;DHT22;18973;48.580;8.912;2023-12-07T04:25:42;0.90;99.90
32534;DHT22;18973;48.580;8.912;2023-12-07T04:28:08;0.90;99.90
32534;DHT22;18973;48.580;8.912;2023-12-07T04:30:33;1.10;99.90
32534;DHT22;18973;48.580;8.912;2023-12-07T04:32:59;0.90;99.90
32534;DHT22;18973;48.580;8.912;2023-12-07T04:35:25;0.90;99.90
32534;DHT22;18973;48.580;8.912;2023-12-07T04:37:50;0.80;99.90
32534;DHT22;18973;48.580;8.912;2023-12-07T04:40:16;0.90;99.90
32534;DHT22;18973;48.580;8.912;2023-12-07T04:42:42;1.00;99.90
32534;DHT22;18973;48.580;8.912;2023-12-07T04:45:08;0.90;99.90
32534;DHT22;18973;48.580;8.912;2023-12-07T04:47:33;0.80;99.90
32534;DHT22;18973;48.580;8.912;2023-12-07T04:49:59;0.70;99.90
32534;DHT22;18973;48.580;8.912;2023-12-07T04:52:25;0.60;99.90
32534;DHT22;18973;48.580;8.912;2023-12-07T04:54:51;0.60;99.90
32534;DHT22;18973;48.580;8.912;2023-12-07T04:57:16;0.50;99.90
32534;DHT22;18973;48.580;8.912;2023-12-07T04:59:42;0.50;99.90
32534;DHT22;18973;48.580;8.912;2023-12-07T05:02:14;0.50;99.90
32534;DHT22;18973;48.580;8.912;2023-12-07T05:04:40;0.40;99.90
32534;DHT22;18973;48.580;8.912;2023-12-07T05:07:05;0.40;99.90
32534;DHT22;18973;48.580;8.912;2023-12-07T05:09:31;0.40;99.90
32534;DHT22;18973;48.580;8.912;2023-12-07T05:11:57;0.30;99.90
32534;DHT22;18973;48.580;8.912;2023-12-07T05:14:23;0.40;99.90
32534;DHT22;18973;48.580;8.912;2023-12-07T05:16:49;0.40;99.90
32534;DHT22;18973;48.580;8.912;2023-12-07T05:19:20;0.40;99.90
32534;DHT22;18973;48.580;8.912;2023-12-07T05:21:46;0.30;99.90
32534;DHT22;18973;48.580;8.912;2023-12-07T05:24:13;0.20;99.90
32534;DHT22;18973;48.580;8.912;2023-12-07T05:26:44;0.20;99.90
32534;DHT22;18973;48.580;8.912;2023-12-07T05:29:12;0.10;99.90
32534;DHT22;18973;48.580;8.912;2023-12-07T05:31:38;0.30;99.90
32534;DHT22;18973;48.580;8.912;2023-12-07T05:34:03;0.20;99.90
32534;DHT22;18973;48.580;8.912;2023-12-07T05:36:29;0.10;99.90
32534;DHT22;18973;48.580;8.912;2023-12-07T05:38:55;0.10;99.90
32534;DHT22;18973;48.580;8.912;2023-12-07T05:41:21;0.10;99.90
32534;DHT22;18973;48.580;8.912;2023-12-07T05:43:46;0.00;99.90
32534;DHT22;18973;48.580;8.912;2023-12-07T05:46:12;0.10;99.90
32534;DHT22;18973;48.580;8.912;2023-12-07T05:48:38;0.30;99.90
32534;DHT22;18973;48.580;8.912;2023-12-07T05:51:04;0.20;99.90
32534;DHT22;18973;48.580;8.912;2023-12-07T05:53:30;0.20;99.90
32534;DHT22;18973;48.580;8.912;2023-12-07T05:55:58;0.30;99.90
32534;DHT22;18973;48.580;8.912;2023-12-07T05:58:24;0.20;99.90
32534;DHT22;18973;48.580;8.912;2023-12-07T06:00:49;0.30;99.90
32534;DHT22;18973;48.580;8.912;2023-12-07T06:03:15;0.10;99.90
32534;DHT22;18973;48.580;8.912;2023-12-07T06:05:41;0.10;99.90
32534;DHT22;18973;48.580;8.912;2023-12-07T06:08:07;0.00;99.90
32534;DHT22;18973;48.580;8.912;2023-12-07T06:10:34;-0.10;99.90
32534;DHT22;18973;48.580;8.912;2023-12-07T06:13:01;-0.10;99.90
32534;DHT22;18973;48.580;8.912;2023-12-07T06:15:27;-0.10;99.90
32534;DHT22;18973;48.580;8.912;2023-12-07T06:17:54;-0.30;99.90
32534;DHT22;18973;48.580;8.912;2023-12-07T06:20:20;0.00;99.90
32534;DHT22;18973;48.580;8.912;2023-12-07T06:22:46;0.10;99.90
32534;DHT22;18973;48.580;8.912;2023-12-07T06:25:12;-0.10;99.90
32534;DHT22;18973;48.580;8.912;2023-12-07T06:27:38;-0.10;99.90
32534;DHT22;18973;48.580;8.912;2023-12-07T06:30:05;-0.20;99.90
32534;DHT22;18973;48.580;8.912;2023-12-07T06:32:34;-0.10;99.90
32534;DHT22;18973;48.580;8.912;2023-12-07T06:35:00;0.00;99.90
32534;DHT22;18973;48.580;8.912;2023-12-07T06:37:26;-0.20;99.90
32534;DHT22;18973;48.580;8.912;2023-12-07T06:39:52;-0.10;99.90
32534;DHT22;18973;48.580;8.912;2023-12-07T06:42:18;0.10;99.90
32534;DHT22;18973;48.580;8.912;2023-12-07T06:44:46;-0.10;99.90
32534;DHT22;18973;48.580;8.912;2023-12-07T06:47:11;-0.30;99.90
32534;DHT22;18973;48.580;8.912;2023-12-07T06:49:38;-0.40;99.90
32534;DHT22;18973;48.580;8.912;2023-12-07T06:52:04;-0.40;99.90
32534;DHT22;18973;48.580;8.912;2023-12-07T06:54:29;-0.40;99.90
32534;DHT22;18973;48.580;8.912;2023-12-07T06:56:55;-0.10;99.90
32534;DHT22;18973;48.580;8.912;2023-12-07T06:59:21;0.10;99.90
32534;DHT22;18973;48.580;8.912;2023-12-07T07:01:46;0.30;99.90
32534;DHT22;18973;48.580;8.912;2023-12-07T07:04:12;0.40;99.90
32534;DHT22;18973;48.580;8.912;2023-12-07T07:06:39;0.10;99.90
32534;DHT22;18973;48.580;8.912;2023-12-07T07:09:05;0.10;99.90
32534;DHT22;18973;48.580;8.912;2023-12-07T07:11:31;-0.10;99.90
32534;DHT22;18973;48.580;8.912;2023-12-07T07:13:56;-0.30;99.90
32534;DHT22;18973;48.580;8.912;2023-12-07T07:16:22;0.00;99.90
32534;DHT22;18973;48.580;8.912;2023-12-07T07:18:48;0.10;99.90
32534;DHT22;18973;48.580;8.912;2023-12-07T07:21:13;0.10;99.90
32534;DHT22;18973;48.580;8.912;2023-12-07T07:23:39;0.30;99.90
32534;DHT22;18973;48.580;8.912;2023-12-07T07:26:05;0.30;99.90
32534;DHT22;18973;48.580;8.912;2023-12-07T07:28:31;0.50;99.90
32534;DHT22;18973;48.580;8.912;2023-12-07T07:30:56;0.60;99.90
32534;DHT22;18973;48.580;8.912;2023-12-07T07:33:22;0.60;99.90
32534;DHT22;18973;48.580;8.912;2023-12-07T07:35:48;0.60;99.90
32534;DHT22;18973;48.580;8.912;2023-12-07T07:38:13;1.00;99.90
32534;DHT22;18973;48.580;8.912;2023-12-07T07:40:40;1.20;99.90
32534;DHT22;18973;48.580;8.912;2023-12-07T07:43:05;1.10;99.90
32534;DHT22;18973;48.580;8.912;2023-12-07T07:45:31;1.40;99.90
32534;DHT22;18973;48.580;8.912;2023-12-07T07:47:57;1.70;99.90
32534;DHT22;18973;48.580;8.912;2023-12-07T07:50:22;2.30;99.90
32534;DHT22;18973;48.580;8.912;2023-12-07T07:52:48;2.70;99.90
32534;DHT22;18973;48.580;8.912;2023-12-07T07:55:14;3.10;99.90
32534;DHT22;18973;48.580;8.912;2023-12-07T07:57:39;4.00;99.90
32534;DHT22;18973;48.580;8.912;2023-12-07T08:00:05;4.20;99.90
32534;DHT22;18973;48.580;8.912;2023-12-07T08:02:34;4.10;99.90
32534;DHT22;18973;48.580;8.912;2023-12-07T08:05:00;4.10;99.90
32534;DHT22;18973;48.580;8.912;2023-12-07T08:07:25;4.10;99.90
32534;DHT22;18973;48.580;8.912;2023-12-07T08:09:51;4.20;99.90
32534;DHT22;18973;48.580;8.912;2023-12-07T08:12:17;4.20;99.90
32534;DHT22;18973;48.580;8.912;2023-12-07T08:14:42;3.90;99.90
32534;DHT22;18973;48.580;8.912;2023-12-07T08:17:10;4.00;99.90
32534;DHT22;18973;48.580;8.912;2023-12-07T08:19:36;4.60;99.90
32534;DHT22;18973;48.580;8.912;2023-12-07T08:22:03;5.20;99.90
32534;DHT22;18973;48.580;8.912;2023-12-07T08:24:29;5.90;99.90
32534;DHT22;18973;48.580;8.912;2023-12-07T08:26:55;6.50;99.90
32534;DHT22;18973;48.580;8.912;2023-12-07T08:29:20;7.00;99.90
32534;DHT22;18973;48.580;8.912;2023-12-07T08:31:46;7.50;99.90
32534;DHT22;18973;48.580;8.912;2023-12-07T08:34:12;7.80;99.90
32534;DHT22;18973;48.580;8.912;2023-12-07T08:36:38;8.00;99.70
32534;DHT22;18973;48.580;8.912;2023-12-07T08:39:04;7.60;99.70
32534;DHT22;18973;48.580;8.912;2023-12-07T08:41:29;7.80;99.60
32534;DHT22;18973;48.580;8.912;2023-12-07T08:43:55;7.20;99.90
32534;DHT22;18973;48.580;8.912;2023-12-07T08:46:21;6.50;99.90
32534;DHT22;18973;48.580;8.912;2023-12-07T08:48:46;6.40;99.90
32534;DHT22;18973;48.580;8.912;2023-12-07T08:51:12;6.60;99.90
32534;DHT22;18973;48.580;8.912;2023-12-07T08:53:38;6.90;99.90
32534;DHT22;18973;48.580;8.912;2023-12-07T08:56:04;7.00;99.90
32534;DHT22;18973;48.580;8.912;2023-12-07T08:58:30;7.20;99.90
32534;DHT22;18973;48.580;8.912;2023-12-07T09:00:56;7.50;99.90
32534;DHT22;18973;48.580;8.912;2023-12-07T09:03:22;7.50;99.90
32534;DHT22;18973;48.580;8.912;2023-12-07T09:05:53;7.40;99.90
32534;DHT22;18973;48.580;8.912;2023-12-07T09:08:18;7.40;99.90
32534;DHT22;18973;48.580;8.912;2023-12-07T09:10:44;8.10;99.90
32534;DHT22;18973;48.580;8.912;2023-12-07T09:13:10;8.00;99.90
32534;DHT22;18973;48.580;8.912;2023-12-07T09:16:33;8.20;99.90
32534;DHT22;18973;48.580;8.912;2023-12-07T09:19:00;7.80;99.90
32534;DHT22;18973;48.580;8.912;2023-12-07T09:21:25;7.60;99.90
32534;DHT22;18973;48.580;8.912;2023-12-07T09:23:51;7.60;99.90
32534;DHT22;18973;48.580;8.912;2023-12-07T09:26:18;7.50;99.90
32534;DHT22;18973;48.580;8.912;2023-12-07T09:28:43;7.40;99.90
32534;DHT22;18973;48.580;8.912;2023-12-07T09:31:09;7.30;99.90
32534;DHT22;18973;48.580;8.912;2023-12-07T09:33:35;7.20;99.90
32534;DHT22;18973;48.580;8.912;2023-12-07T09:36:01;7.20;99.90
32534;DHT22;18973;48.580;8.912;2023-12-07T09:38:29;7.00;99.90
32534;DHT22;18973;48.580;8.912;2023-12-07T09:40:55;7.00;99.90
32534;DHT22;18973;48.580;8.912;2023-12-07T09:43:21;7.00;99.90
32534;DHT22;18973;48.580;8.912;2023-12-07T09:45:47;6.90;99.90
32534;DHT22;18973;48.580;8.912;2023-12-07T09:48:13;6.60;99.90
32534;DHT22;18973;48.580;8.912;2023-12-07T09:50:39;6.40;99.90
32534;DHT22;18973;48.580;8.912;2023-12-07T09:53:05;6.20;99.90
32534;DHT22;18973;48.580;8.912;2023-12-07T09:55:33;6.10;99.90
32534;DHT22;18973;48.580;8.912;2023-12-07T09:57:58;6.30;99.90
32534;DHT22;18973;48.580;8.912;2023-12-07T10:00:24;6.20;99.90
32534;DHT22;18973;48.580;8.912;2023-12-07T10:02:51;6.30;99.90
32534;DHT22;18973;48.580;8.912;2023-12-07T10:05:17;6.30;99.90
32534;DHT22;18973;48.580;8.912;2023-12-07T10:07:49;6.60;99.90
32534;DHT22;18973;48.580;8.912;2023-12-07T10:10:16;7.40;99.90
32534;DHT22;18973;48.580;8.912;2023-12-07T10:12:51;7.10;99.90
32534;DHT22;18973;48.580;8.912;2023-12-07T10:15:18;7.00;99.90
32534;DHT22;18973;48.580;8.912;2023-12-07T10:17:52;6.80;99.90
32534;DHT22;18973;48.580;8.912;2023-12-07T10:20:19;6.70;99.90
32534;DHT22;18973;48.580;8.912;2023-12-07T10:23:00;6.40;99.90
32534;DHT22;18973;48.580;8.912;2023-12-07T10:25:26;6.50;99.90
32534;DHT22;18973;48.580;8.912;2023-12-07T10:27:52;6.60;99.90
32534;DHT22;18973;48.580;8.912;2023-12-07T10:30:18;6.50;99.90
32534;DHT22;18973;48.580;8.912;2023-12-07T10:32:50;6.40;99.90
32534;DHT22;18973;48.580;8.912;2023-12-07T10:35:17;6.20;99.90
32534;DHT22;18973;48.580;8.912;2023-12-07T10:37:43;6.30;99.90
32534;DHT22;18973;48.580;8.912;2023-12-07T10:40:09;6.10;99.90
32534;DHT22;18973;48.580;8.912;2023-12-07T10:42:36;6.30;99.90
32534;DHT22;18973;48.580;8.912;2023-12-07T10:45:06;6.50;99.90
32534;DHT22;18973;48.580;8.912;2023-12-07T10:47:37;6.60;99.90
32534;DHT22;18973;48.580;8.912;2023-12-07T10:50:08;6.50;99.90
32534;DHT22;18973;48.580;8.912;2023-12-07T10:52:44;6.50;99.90
32534;DHT22;18973;48.580;8.912;2023-12-07T10:55:19;6.60;99.90
32534;DHT22;18973;48.580;8.912;2023-12-07T10:57:46;6.50;99.90
32534;DHT22;18973;48.580;8.912;2023-12-07T11:00:12;6.60;99.90
32534;DHT22;18973;48.580;8.912;2023-12-07T11:02:39;6.70;99.90
32534;DHT22;18973;48.580;8.912;2023-12-07T11:05:07;6.80;99.90
32534;DHT22;18973;48.580;8.912;2023-12-07T11:08:06;6.80;99.90
32534;DHT22;18973;48.580;8.912;2023-12-07T11:13:27;6.70;99.90
32534;DHT22;18973;48.580;8.912;2023-12-07T11:15:55;6.80;99.90
32534;DHT22;18973;48.580;8.912;2023-12-07T11:18:21;6.70;99.90
32534;DHT22;18973;48.580;8.912;2023-12-07T11:20:46;6.70;99.90
32534;DHT22;18973;48.580;8.912;2023-12-07T11:23:18;6.80;99.90
32534;DHT22;18973;48.580;8.912;2023-12-07T11:25:46;6.90;99.90
32534;DHT22;18973;48.580;8.912;2023-12-07T11:28:12;6.80;99.90
32534;DHT22;18973;48.580;8.912;2023-12-07T11:30:42;6.90;99.90
32534;DHT22;18973;48.580;8.912;2023-12-07T11:33:09;6.90;99.90
32534;DHT22;18973;48.580;8.912;2023-12-07T11:36:07;6.90;99.90
32534;DHT22;18973;48.580;8.912;2023-12-07T11:38:33;6.60;99.90
32534;DHT22;18973;48.580;8.912;2023-12-07T11:40:59;6.70;99.90
32534;DHT22;18973;48.580;8.912;2023-12-07T11:45:57;9.80;99.90
32534;DHT22;18973;48.580;8.912;2023-12-07T11:48:23;10.50;99.90
32534;DHT22;18973;48.580;8.912;2023-12-07T11:50:58;10.20;97.90
32534;DHT22;18973;48.580;8.912;2023-12-07T11:53:37;9.20;98.30
32534;DHT22;18973;48.580;8.912;2023-12-07T11:56:05;8.60;99.60
32534;DHT22;18973;48.580;8.912;2023-12-07T11:58:32;8.20;99.90
32534;DHT22;18973;48.580;8.912;2023-12-07T12:00:59;7.80;99.90
32534;DHT22;18973;48.580;8.912;2023-12-07T12:03:26;7.50;99.90
32534;DHT22;18973;48.580;8.912;2023-12-07T12:05:51;7.20;99.90
32534;DHT22;18973;48.580;8.912;2023-12-07T12:08:18;7.10;99.90
32534;DHT22;18973;48.580;8.912;2023-12-07T12:10:45;7.10;99.90
32534;DHT22;18973;48.580;8.912;2023-12-07T12:13:11;7.10;99.90
32534;DHT22;18973;48.580;8.912;2023-12-07T12:15:38;7.10;99.90
32534;DHT22;18973;48.580;8.912;2023-12-07T12:18:05;7.30;99.90
32534;DHT22;18973;48.580;8.912;2023-12-07T12:20:31;7.40;99.90
32534;DHT22;18973;48.580;8.912;2023-12-07T12:22:58;7.30;99.90
32534;DHT22;18973;48.580;8.912;2023-12-07T12:25:26;7.10;99.90
32534;DHT22;18973;48.580;8.912;2023-12-07T12:28:04;6.90;99.90
32534;DHT22;18973;48.580;8.912;2023-12-07T12:30:34;6.90;99.90
32534;DHT22;18973;48.580;8.912;2023-12-07T12:33:00;6.80;99.90
32534;DHT22;18973;48.580;8.912;2023-12-07T12:39:05;7.00;99.90
32534;DHT22;18973;48.580;8.912;2023-12-07T12:41:34;7.00;99.90
32534;DHT22;18973;48.580;8.912;2023-12-07T12:43:59;7.00;99.90
32534;DHT22;18973;48.580;8.912;2023-12-07T12:46:25;6.90;99.90
32534;DHT22;18973;48.580;8.912;2023-12-07T12:48:59;7.00;99.90
32534;DHT22;18973;48.580;8.912;2023-12-07T12:51:26;6.80;99.90
32534;DHT22;18973;48.580;8.912;2023-12-07T12:53:54;6.90;99.90
32534;DHT22;18973;48.580;8.912;2023-12-07T12:56:21;6.90;99.90
32534;DHT22;18973;48.580;8.912;2023-12-07T12:58:51;6.90;99.90
32534;DHT22;18973;48.580;8.912;2023-12-07T13:01:17;6.90;99.90
32534;DHT22;18973;48.580;8.912;2023-12-07T13:03:46;6.90;99.90
32534;DHT22;18973;48.580;8.912;2023-12-07T13:06:13;6.80;99.90
32534;DHT22;18973;48.580;8.912;2023-12-07T13:08:43;6.80;99.90
32534;DHT22;18973;48.580;8.912;2023-12-07T13:11:09;6.90;99.90
32534;DHT22;18973;48.580;8.912;2023-12-07T13:13:35;6.90;99.90
32534;DHT22;18973;48.580;8.912;2023-12-07T13:16:01;6.90;99.90
32534;DHT22;18973;48.580;8.912;2023-12-07T13:18:26;6.90;99.90
32534;DHT22;18973;48.580;8.912;2023-12-07T13:20:52;6.80;99.90
32534;DHT22;18973;48.580;8.912;2023-12-07T13:23:18;6.80;99.90
32534;DHT22;18973;48.580;8.912;2023-12-07T13:25:43;6.80;99.90
32534;DHT22;18973;48.580;8.912;2023-12-07T13:28:09;6.70;99.90
32534;DHT22;18973;48.580;8.912;2023-12-07T13:30:35;6.70;99.90
32534;DHT22;18973;48.580;8.912;2023-12-07T13:33:01;6.60;99.90
32534;DHT22;18973;48.580;8.912;2023-12-07T13:35:29;6.70;99.90
32534;DHT22;18973;48.580;8.912;2023-12-07T13:37:55;6.70;99.90
32534;DHT22;18973;48.580;8.912;2023-12-07T13:40:20;6.60;99.90
32534;DHT22;18973;48.580;8.912;2023-12-07T13:42:46;6.70;99.90
32534;DHT22;18973;48.580;8.912;2023-12-07T13:45:12;6.70;99.90
32534;DHT22;18973;48.580;8.912;2023-12-07T13:47:38;6.70;99.90
32534;DHT22;18973;48.580;8.912;2023-12-07T13:50:04;6.70;99.90
32534;DHT22;18973;48.580;8.912;2023-12-07T13:52:31;6.60;99.90
32534;DHT22;18973;48.580;8.912;2023-12-07T13:54:57;6.60;99.90
32534;DHT22;18973;48.580;8.912;2023-12-07T13:57:24;6.60;99.90
32534;DHT22;18973;48.580;8.912;2023-12-07T13:59:50;6.70;99.90
32534;DHT22;18973;48.580;8.912;2023-12-07T14:02:16;6.60;99.90
32534;DHT22;18973;48.580;8.912;2023-12-07T14:04:42;6.60;99.90
32534;DHT22;18973;48.580;8.912;2023-12-07T14:07:12;6.50;99.90
32534;DHT22;18973;48.580;8.912;2023-12-07T14:09:45;6.60;99.90
32534;DHT22;18973;48.580;8.912;2023-12-07T14:12:13;6.50;99.90
32534;DHT22;18973;48.580;8.912;2023-12-07T14:14:44;6.50;99.90
32534;DHT22;18973;48.580;8.912;2023-12-07T14:17:10;6.50;99.90
32534;DHT22;18973;48.580;8.912;2023-12-07T14:19:36;6.40;99.90
32534;DHT22;18973;48.580;8.912;2023-12-07T14:22:03;6.40;99.90
32534;DHT22;18973;48.580;8.912;2023-12-07T14:24:29;6.30;99.90
32534;DHT22;18973;48.580;8.912;2023-12-07T14:26:57;6.30;99.90
32534;DHT22;18973;48.580;8.912;2023-12-07T14:29:23;6.30;99.90
32534;DHT22;18973;48.580;8.912;2023-12-07T14:31:50;6.20;99.90
32534;DHT22;18973;48.580;8.912;2023-12-07T14:34:17;6.10;99.90
32534;DHT22;18973;48.580;8.912;2023-12-07T14:36:44;6.10;99.90
32534;DHT22;18973;48.580;8.912;2023-12-07T14:39:13;6.10;99.90
32534;DHT22;18973;48.580;8.912;2023-12-07T14:41:49;6.10;99.90
32534;DHT22;18973;48.580;8.912;2023-12-07T14:44:16;6.10;99.90
32534;DHT22;18973;48.580;8.912;2023-12-07T14:46:46;6.10;99.90
32534;DHT22;18973;48.580;8.912;2023-12-07T14:49:13;6.00;99.90
32534;DHT22;18973;48.580;8.912;2023-12-07T14:51:39;5.90;99.90
32534;DHT22;18973;48.580;8.912;2023-12-07T14:54:06;5.90;99.90
32534;DHT22;18973;48.580;8.912;2023-12-07T14:56:32;5.70;99.90
32534;DHT22;18973;48.580;8.912;2023-12-07T14:59:00;5.50;99.90
32534;DHT22;18973;48.580;8.912;2023-12-07T15:01:26;5.50;99.90
32534;DHT22;18973;48.580;8.912;2023-12-07T15:03:51;5.50;99.90
32534;DHT22;18973;48.580;8.912;2023-12-07T15:06:17;5.50;99.90
32534;DHT22;18973;48.580;8.912;2023-12-07T15:08:44;5.40;99.90
32534;DHT22;18973;48.580;8.912;2023-12-07T15:11:10;4.90;99.90
32534;DHT22;18973;48.580;8.912;2023-12-07T15:13:36;4.90;99.90
32534;DHT22;18973;48.580;8.912;2023-12-07T15:16:02;4.90;99.90
32534;DHT22;18973;48.580;8.912;2023-12-07T15:18:29;5.10;99.60
32534;DHT22;18973;48.580;8.912;2023-12-07T15:20:57;5.10;99.20
32534;DHT22;18973;48.580;8.912;2023-12-07T15:23:22;5.10;99.40
32534;DHT22;18973;48.580;8.912;2023-12-07T15:25:48;4.80;99.90
32534;DHT22;18973;48.580;8.912;2023-12-07T15:28:14;4.80;99.90
32534;DHT22;18973;48.580;8.912;2023-12-07T15:30:40;4.70;99.90
32534;DHT22;18973;48.580;8.912;2023-12-07T15:33:06;4.70;99.80
32534;DHT22;18973;48.580;8.912;2023-12-07T15:35:32;4.70;99.90
32534;DHT22;18973;48.580;8.912;2023-12-07T15:37:58;4.50;99.50
32534;DHT22;18973;48.580;8.912;2023-12-07T15:40:24;4.00;99.90
32534;DHT22;18973;48.580;8.912;2023-12-07T15:42:49;3.90;99.90
32534;DHT22;18973;48.580;8.912;2023-12-07T15:45:15;3.70;99.90
32534;DHT22;18973;48.580;8.912;2023-12-07T15:47:41;3.70;99.90
32534;DHT22;18973;48.580;8.912;2023-12-07T15:50:07;3.70;99.90
32534;DHT22;18973;48.580;8.912;2023-12-07T15:52:32;3.60;99.90